createdAt,value
2022-09-11T00:01:25.738Z,13.88
2022-09-11T00:04:42.732Z,13.90
2022-09-11T00:07:58.932Z,13.93
2022-09-11T00:11:19.625Z,13.85
2022-09-11T00:14:37.580Z,13.81
2022-09-11T00:17:55.515Z,13.78
2022-09-11T00:21:12.869Z,13.71
2022-09-11T00:24:29.520Z,13.73
2022-09-11T00:27:46.411Z,13.67
2022-09-11T00:31:12.861Z,13.66
2022-09-11T00:34:29.440Z,13.65
2022-09-11T00:37:45.955Z,13.58
2022-09-11T00:41:04.367Z,13.51
2022-09-11T00:45:08.219Z,13.49
2022-09-11T00:48:30.663Z,13.49
2022-09-11T00:51:47.708Z,13.50
2022-09-11T00:55:07.915Z,13.54
2022-09-11T00:58:28.421Z,13.52
2022-09-11T01:01:45.343Z,13.55
2022-09-11T01:05:02.664Z,13.58
2022-09-11T01:08:19.623Z,13.58
2022-09-11T01:11:55.629Z,13.66
2022-09-11T01:15:17.094Z,13.69
2022-09-11T01:18:37.812Z,13.72
2022-09-11T01:22:20.700Z,13.74
2022-09-11T01:25:47.465Z,13.77
2022-09-11T01:29:09.321Z,13.79
2022-09-11T01:32:31.983Z,13.78
2022-09-11T01:36:08.508Z,13.78
2022-09-11T01:39:28.508Z,13.82
2022-09-11T01:42:47.864Z,13.79
2022-09-11T01:46:09.422Z,13.80
2022-09-11T01:49:31.809Z,13.82
2022-09-11T01:52:53.960Z,13.86
2022-09-11T01:56:16.535Z,13.85
2022-09-11T01:59:39.954Z,13.86
2022-09-11T02:03:01.592Z,13.84
2022-09-11T02:06:25.058Z,13.89
2022-09-11T02:09:49.028Z,13.92
2022-09-11T02:13:13.573Z,13.94
2022-09-11T02:16:36.899Z,13.96
2022-09-11T02:19:54.350Z,13.96
2022-09-11T02:23:10.857Z,13.99
2022-09-11T02:26:30.826Z,13.99
2022-09-11T02:29:48.084Z,13.99
2022-09-11T02:33:07.018Z,14.00
2022-09-11T02:36:55.655Z,14.01
2022-09-11T02:40:44.911Z,13.99
2022-09-11T02:44:10.732Z,13.94
2022-09-11T02:47:36.833Z,13.90
2022-09-11T02:50:59.623Z,13.91
2022-09-11T02:54:23.268Z,13.93
2022-09-11T02:57:45.226Z,13.92
2022-09-11T03:01:05.024Z,13.95
2022-09-11T03:04:25.198Z,13.96
2022-09-11T03:07:42.476Z,13.96
2022-09-11T03:11:00.949Z,13.98
2022-09-11T03:14:19.779Z,14.00
2022-09-11T03:17:36.157Z,14.02
2022-09-11T03:20:53.996Z,14.03
2022-09-11T03:24:11.904Z,14.03
2022-09-11T03:27:28.861Z,14.00
2022-09-11T03:30:47.873Z,14.01
2022-09-11T03:34:04.294Z,14.02
2022-09-11T03:37:21.793Z,14.02
2022-09-11T03:40:38.522Z,14.00
2022-09-11T03:43:55.543Z,14.00
2022-09-11T03:47:12.680Z,14.00
2022-09-11T03:50:29.475Z,13.97
2022-09-11T03:53:45.973Z,13.95
2022-09-11T03:57:04.151Z,13.91
2022-09-11T04:00:22.894Z,13.89
2022-09-11T04:03:41.763Z,13.91
2022-09-11T04:07:00.515Z,13.94
2022-09-11T04:10:18.936Z,13.95
2022-09-11T04:13:41.143Z,13.95
2022-09-11T04:16:59.799Z,13.95
2022-09-11T04:20:20.380Z,13.95
2022-09-11T04:23:40.143Z,13.97
2022-09-11T04:27:00.070Z,13.99
2022-09-11T04:30:15.290Z,14.00
2022-09-11T04:33:31.583Z,13.99
2022-09-11T04:36:47.628Z,13.99
2022-09-11T04:40:07.095Z,13.99
2022-09-11T04:43:24.153Z,14.00
2022-09-11T04:46:41.761Z,14.03
2022-09-11T04:49:58.466Z,14.05
2022-09-11T04:53:16.312Z,14.07
2022-09-11T04:56:35.085Z,14.07
2022-09-11T04:59:53.487Z,14.10
2022-09-11T05:03:10.256Z,14.04
2022-09-11T05:06:28.237Z,14.11
2022-09-11T05:09:44.985Z,14.10
2022-09-11T05:13:02.158Z,14.11
2022-09-11T05:16:21.913Z,14.14
2022-09-11T05:19:38.139Z,14.18
2022-09-11T05:22:55.799Z,14.19
2022-09-11T05:26:16.784Z,14.21
2022-09-11T05:29:33.769Z,14.20
2022-09-11T05:32:52.384Z,14.24
2022-09-11T05:36:13.670Z,14.28
2022-09-11T05:39:30.434Z,14.25
2022-09-11T05:42:48.542Z,14.26
2022-09-11T05:46:09.319Z,14.34
2022-09-11T05:49:26.299Z,14.35
2022-09-11T05:52:43.045Z,14.39
2022-09-11T05:56:01.020Z,14.39
2022-09-11T05:59:22.113Z,14.40
2022-09-11T06:02:40.862Z,14.43
2022-09-11T06:06:01.870Z,14.46
2022-09-11T06:09:21.757Z,14.50
2022-09-11T06:12:39.651Z,14.55
2022-09-11T06:15:56.843Z,14.59
2022-09-11T06:19:15.870Z,14.59
2022-09-11T06:22:34.631Z,14.62
2022-09-11T06:25:50.755Z,14.63
2022-09-11T06:29:08.496Z,14.64
2022-09-11T06:32:25.946Z,14.64
2022-09-11T06:35:43.207Z,14.72
2022-09-11T06:39:03.000Z,14.77
2022-09-11T06:42:19.921Z,14.96
2022-09-11T06:45:36.991Z,15.01
2022-09-11T06:48:55.831Z,15.14
2022-09-11T06:52:13.906Z,15.19
2022-09-11T06:55:32.786Z,15.25
2022-09-11T06:58:53.629Z,15.32
2022-09-11T07:02:12.108Z,15.34
2022-09-11T07:05:29.025Z,15.34
2022-09-11T07:08:47.069Z,15.33
2022-09-11T07:12:23.537Z,15.29
2022-09-11T07:16:17.297Z,15.32
2022-09-11T07:19:41.273Z,15.31
2022-09-11T07:23:03.666Z,15.33
2022-09-11T07:26:21.658Z,15.38
2022-09-11T07:29:40.112Z,15.43
2022-09-11T07:32:56.790Z,15.54
2022-09-11T07:36:19.543Z,15.58
2022-09-11T07:39:38.340Z,15.60
2022-09-11T07:42:56.530Z,15.62
2022-09-11T07:46:14.945Z,15.59
2022-09-11T07:49:31.913Z,15.60
2022-09-11T07:52:48.054Z,15.55
2022-09-11T07:56:09.697Z,15.51
2022-09-11T07:59:26.810Z,15.48
2022-09-11T08:02:43.742Z,15.44
2022-09-11T08:06:04.369Z,15.41
2022-09-11T08:09:28.012Z,15.43
2022-09-11T08:12:46.027Z,15.41
2022-09-11T08:16:02.309Z,15.42
2022-09-11T08:19:26.194Z,15.38
2022-09-11T08:22:47.255Z,15.31
2022-09-11T08:26:13.688Z,15.27
2022-09-11T08:29:33.513Z,15.24
2022-09-11T08:32:50.562Z,15.22
2022-09-11T08:36:09.253Z,15.14
2022-09-11T08:39:23.860Z,15.14
2022-09-11T08:42:42.430Z,15.16
2022-09-11T08:46:05.937Z,15.20
2022-09-11T08:49:30.091Z,15.26
2022-09-11T08:52:49.642Z,15.29
2022-09-11T08:56:12.109Z,15.39
2022-09-11T08:59:39.700Z,15.37
2022-09-11T09:03:35.824Z,15.46
2022-09-11T09:07:09.189Z,15.50
2022-09-11T09:10:36.608Z,15.54
2022-09-11T09:14:19.115Z,15.61
2022-09-11T09:17:41.911Z,15.69
2022-09-11T09:21:06.267Z,15.72
2022-09-11T09:24:27.367Z,15.80
2022-09-11T09:27:48.822Z,15.84
2022-09-11T09:31:08.876Z,15.86
2022-09-11T09:34:42.731Z,15.90
2022-09-11T09:38:00.458Z,15.94
2022-09-11T09:41:50.293Z,15.94
2022-09-11T09:45:25.235Z,15.93
2022-09-11T09:48:45.971Z,15.93
2022-09-11T09:52:11.423Z,15.94
2022-09-11T09:55:28.112Z,15.98
2022-09-11T09:58:45.396Z,15.93
2022-09-11T10:02:01.983Z,15.92
2022-09-11T10:05:29.025Z,15.97
2022-09-11T10:08:46.092Z,16.04
2022-09-11T10:12:08.783Z,16.09
2022-09-11T10:15:31.089Z,16.16
2022-09-11T10:18:50.527Z,16.25
2022-09-11T10:22:31.081Z,16.28
2022-09-11T10:25:53.398Z,16.40
2022-09-11T10:29:17.804Z,16.40
2022-09-11T10:32:34.286Z,16.40
2022-09-11T10:35:57.865Z,16.40
2022-09-11T10:39:21.374Z,16.46
2022-09-11T10:42:40.912Z,16.50
2022-09-11T10:46:16.267Z,16.56
2022-09-11T10:49:33.200Z,16.62
2022-09-11T10:53:08.756Z,16.60
2022-09-11T10:56:25.219Z,16.65
2022-09-11T10:59:49.040Z,16.63
2022-09-11T11:03:10.254Z,16.61
2022-09-11T11:06:39.239Z,16.72
2022-09-11T11:10:09.366Z,16.85
2022-09-11T11:13:37.987Z,16.90
2022-09-11T11:17:03.384Z,16.87
2022-09-11T11:20:37.989Z,16.82
2022-09-11T11:24:23.242Z,16.80
2022-09-11T11:28:03.546Z,16.78
2022-09-11T11:31:32.230Z,16.78
2022-09-11T11:35:02.277Z,16.71
2022-09-11T11:38:24.244Z,16.63
2022-09-11T11:41:45.735Z,16.66
2022-09-11T11:45:09.823Z,16.66
2022-09-11T11:48:32.844Z,16.56
2022-09-11T11:51:55.984Z,16.51
2022-09-11T11:55:22.148Z,16.51
2022-09-11T11:58:51.960Z,16.47
2022-09-11T12:02:19.588Z,16.47
2022-09-11T12:05:39.359Z,16.45
2022-09-11T12:08:56.457Z,16.48
2022-09-11T12:12:17.810Z,16.52
2022-09-11T12:15:37.683Z,16.57
2022-09-11T12:19:21.164Z,16.59
2022-09-11T12:22:46.146Z,16.62
2022-09-11T12:26:25.134Z,16.70
2022-09-11T12:30:03.509Z,16.78
2022-09-11T12:33:50.295Z,16.89
2022-09-11T12:37:10.427Z,16.96
2022-09-11T12:40:33.143Z,17.05
2022-09-11T12:44:01.601Z,17.08
2022-09-11T12:47:24.230Z,17.11
2022-09-11T12:50:40.929Z,17.17
2022-09-11T12:54:01.092Z,17.22
2022-09-11T12:57:24.054Z,17.23
2022-09-11T13:00:48.543Z,17.24
2022-09-11T13:04:12.248Z,17.22
2022-09-11T13:07:41.994Z,17.16
2022-09-11T13:10:59.472Z,17.12
2022-09-11T13:15:00.641Z,17.08
2022-09-11T13:18:39.153Z,17.08
2022-09-11T13:21:57.793Z,17.04
2022-09-11T13:25:25.047Z,17.06
2022-09-11T13:28:48.166Z,17.03
2022-09-11T13:32:11.093Z,17.01
2022-09-11T13:35:33.225Z,16.95
2022-09-11T13:38:51.050Z,16.91
2022-09-11T13:42:10.364Z,16.86
2022-09-11T13:45:28.541Z,16.81
2022-09-11T13:48:44.943Z,16.74
2022-09-11T13:52:01.541Z,16.69
2022-09-11T13:55:27.093Z,16.63
2022-09-11T13:58:45.086Z,16.57
2022-09-11T14:02:07.535Z,16.49
2022-09-11T14:05:28.553Z,16.43
2022-09-11T14:08:52.720Z,16.49
2022-09-11T14:12:14.036Z,16.54
2022-09-11T14:15:38.669Z,16.59
2022-09-11T14:19:00.506Z,16.68
2022-09-11T14:22:29.965Z,16.79
2022-09-11T14:25:47.783Z,16.85
2022-09-11T14:29:13.484Z,16.88
2022-09-11T14:32:43.705Z,16.92
2022-09-11T14:36:07.795Z,16.98
2022-09-11T14:39:33.934Z,17.02
2022-09-11T14:45:56.883Z,16.93
2022-09-11T14:49:16.230Z,16.88
2022-09-11T14:52:46.554Z,16.81
2022-09-11T14:56:04.735Z,16.82
2022-09-11T14:59:31.488Z,16.78
2022-09-11T15:02:48.629Z,16.65
2022-09-11T15:06:23.850Z,16.58
2022-09-11T15:09:43.076Z,16.45
2022-09-11T15:13:00.926Z,16.36
2022-09-11T15:16:18.873Z,16.22
2022-09-11T15:19:41.773Z,16.14
2022-09-11T15:22:58.450Z,16.08
2022-09-11T15:26:24.711Z,16.00
2022-09-11T15:29:45.929Z,15.96
2022-09-11T15:33:04.285Z,15.94
2022-09-11T15:36:26.988Z,15.92
2022-09-11T15:39:43.451Z,15.92
2022-09-11T15:43:16.267Z,15.91
2022-09-11T15:46:47.946Z,15.82
2022-09-11T15:50:12.965Z,15.84
2022-09-11T15:53:38.620Z,15.79
2022-09-11T15:56:58.038Z,15.69
2022-09-11T16:00:27.053Z,15.65
2022-09-11T16:03:43.912Z,15.52
2022-09-11T16:07:03.691Z,15.50
2022-09-11T16:10:22.981Z,15.48
2022-09-11T16:13:44.724Z,15.42
2022-09-11T16:17:09.094Z,15.42
2022-09-11T16:20:34.067Z,15.36
2022-09-11T16:23:57.854Z,15.38
2022-09-11T16:27:31.963Z,15.35
2022-09-11T16:31:06.575Z,15.37
2022-09-11T16:34:29.069Z,15.31
2022-09-11T16:37:45.534Z,15.28
2022-09-11T16:41:10.372Z,15.25
2022-09-11T16:44:29.356Z,15.23
2022-09-11T16:47:45.614Z,15.20
2022-09-11T16:51:03.609Z,15.17
2022-09-11T16:54:31.740Z,15.07
2022-09-11T16:57:55.394Z,15.08
2022-09-11T17:01:18.863Z,15.04
2022-09-11T17:04:36.540Z,14.99
2022-09-11T17:07:53.802Z,14.97
2022-09-11T17:11:22.600Z,14.92
2022-09-11T17:14:48.837Z,14.91
2022-09-11T17:18:05.337Z,14.88
2022-09-11T17:21:23.848Z,14.84
2022-09-11T17:24:46.584Z,14.84
2022-09-11T17:28:03.373Z,14.85
2022-09-11T17:31:21.608Z,14.80
2022-09-11T17:34:38.131Z,14.82
2022-09-11T17:38:05.795Z,14.84
2022-09-11T17:41:24.175Z,14.85
2022-09-11T17:44:42.163Z,14.86
2022-09-11T17:47:58.955Z,14.88
2022-09-11T17:51:26.875Z,14.93
2022-09-11T17:54:47.156Z,14.89
2022-09-11T17:58:08.786Z,14.85
2022-09-11T18:01:25.913Z,14.83
2022-09-11T18:04:45.112Z,14.86
2022-09-11T18:08:02.984Z,14.89
2022-09-11T18:11:41.992Z,14.85
2022-09-11T18:15:04.814Z,14.91
2022-09-11T18:18:29.761Z,14.93
2022-09-11T18:21:53.156Z,14.92
2022-09-11T18:25:23.245Z,14.91
2022-09-11T18:28:43.410Z,14.94
2022-09-11T18:32:07.529Z,14.95
2022-09-11T18:35:23.962Z,14.93
2022-09-11T18:38:41.292Z,14.95
2022-09-11T18:42:08.402Z,14.93
2022-09-11T18:45:42.316Z,14.92
2022-09-11T18:49:00.298Z,14.86
2022-09-11T18:52:17.697Z,14.85
2022-09-11T18:55:33.791Z,14.78
2022-09-11T18:58:52.652Z,14.70
2022-09-11T19:02:09.092Z,14.70
2022-09-11T19:05:28.738Z,14.66
2022-09-11T19:08:47.683Z,14.58
2022-09-11T19:12:04.425Z,14.55
2022-09-11T19:15:21.029Z,14.49
2022-09-11T19:18:37.662Z,14.48
2022-09-11T19:21:53.964Z,14.46
2022-09-11T19:25:11.033Z,14.39
2022-09-11T19:28:27.238Z,14.35
2022-09-11T19:31:44.875Z,14.35
2022-09-11T19:35:01.217Z,14.32
2022-09-11T19:38:18.117Z,14.34
2022-09-11T19:41:37.985Z,14.33
2022-09-11T19:44:56.744Z,14.26
2022-09-11T19:48:13.225Z,14.24
2022-09-11T19:51:31.784Z,14.23
2022-09-11T19:54:47.884Z,14.20
2022-09-11T19:58:04.958Z,14.19
2022-09-11T20:01:24.092Z,14.15
2022-09-11T20:04:38.126Z,14.13
2022-09-11T20:07:54.806Z,14.13
2022-09-11T20:11:14.107Z,14.09
2022-09-11T20:14:33.050Z,14.08
2022-09-11T20:17:50.657Z,14.08
2022-09-11T20:21:14.513Z,14.04
2022-09-11T20:24:31.059Z,14.02
2022-09-11T20:27:47.309Z,13.99
2022-09-11T20:31:03.445Z,13.98
2022-09-11T20:34:19.711Z,13.98
2022-09-11T20:37:35.901Z,13.94
2022-09-11T20:40:51.743Z,13.93
2022-09-11T20:44:09.725Z,13.91
2022-09-11T20:47:26.509Z,13.84
2022-09-11T20:50:42.666Z,13.78
2022-09-11T20:54:00.569Z,13.78
2022-09-11T20:57:17.490Z,13.74
2022-09-11T21:00:33.881Z,13.69
2022-09-11T21:03:57.138Z,13.67
2022-09-11T21:07:13.461Z,13.64
2022-09-11T21:10:29.472Z,13.64
2022-09-11T21:13:48.282Z,13.59
2022-09-11T21:17:04.489Z,13.55
2022-09-11T21:20:20.938Z,13.55
2022-09-11T21:23:37.466Z,13.54
2022-09-11T21:26:55.366Z,13.53
2022-09-11T21:30:14.207Z,13.51
2022-09-11T21:33:30.209Z,13.53
2022-09-11T21:36:46.275Z,13.50
2022-09-11T21:40:03.316Z,13.48
2022-09-11T21:43:19.855Z,13.50
2022-09-11T21:46:36.152Z,13.50
2022-09-11T21:49:52.694Z,13.48
2022-09-11T21:53:08.735Z,13.44
2022-09-11T21:56:31.704Z,13.48
2022-09-11T21:59:47.835Z,13.50
2022-09-11T22:03:03.952Z,13.51
2022-09-11T22:06:21.067Z,13.52
2022-09-11T22:09:38.857Z,13.49
2022-09-11T22:12:55.026Z,13.46
2022-09-11T22:16:14.676Z,13.42
2022-09-11T22:19:30.620Z,13.38
2022-09-11T22:22:49.694Z,13.39
2022-09-11T22:26:11.068Z,13.36
2022-09-11T22:29:27.407Z,13.36
2022-09-11T22:32:43.499Z,13.34
2022-09-11T22:36:00.016Z,13.33
2022-09-11T22:39:16.264Z,13.24
2022-09-11T22:42:32.865Z,13.23
2022-09-11T22:45:49.139Z,13.23
2022-09-11T22:49:05.854Z,13.25
2022-09-11T22:52:22.092Z,13.26
2022-09-11T22:55:38.855Z,13.25
2022-09-11T22:58:55.490Z,13.25
2022-09-11T23:02:13.591Z,13.18
2022-09-11T23:05:44.122Z,13.15
2022-09-11T23:09:01.365Z,13.15
2022-09-11T23:12:18.214Z,13.16
2022-09-11T23:15:35.483Z,13.16
2022-09-11T23:18:52.443Z,13.15
2022-09-11T23:22:08.631Z,13.13
2022-09-11T23:25:25.980Z,13.14
2022-09-11T23:28:43.332Z,13.14
2022-09-11T23:32:00.516Z,13.08
2022-09-11T23:35:19.120Z,13.04
2022-09-11T23:38:35.153Z,13.04
2022-09-11T23:41:51.085Z,13.02
2022-09-11T23:45:08.354Z,13.00
2022-09-11T23:48:24.553Z,12.97
2022-09-11T23:51:40.771Z,12.93
2022-09-11T23:54:56.883Z,12.91
2022-09-11T23:58:13.237Z,12.91
